Latest Weather Observations for Leinster

IDW60801

Issued at 10:03 pm WST Tuesday 12 December 2017 (issued every 30 minutes, with the page automatically refreshed every 10 minutes)

About weather observations | Map of weather stations | Latest weather observations for WA | Other Formats
Station Details ID: 012314 Name: LEINSTER AERO Lat: -27.84 Lon: 120.70 Height: 497.0 m
Data from the previous 72 hours. | See also: Recent months at Leinster
Date/Time
WST
Temp
°C
App
Temp
°C
Dew
Point
°C
Rel
Hum
%
Delta-T
°C
Wind Press
QNH
hPa
Press
MSL
hPa
Rain since
9am
mm
Dir  Spd
km/h
Gust
km/h
Spd
kts
Gust
kts
12/10:00pm 29.3 25.4 5.4 22 12.8 WSW 15 22 8 12 1009.9 1006.3 0.0
12/09:30pm 29.5 25.9 2.7 18 13.7 WSW 11 15 6 8 1009.5 1006.0 0.0
12/09:00pm 30.6 26.4 1.9 16 14.6 WSW 13 17 7 9 1009.2 1005.7 0.0
12/08:30pm 31.7 26.9 2.8 16 15.0 WSW 17 24 9 13 1009.0 1005.5 0.0
12/08:00pm 32.3 28.0 3.3 16 15.2 WSW 15 24 8 13 1008.6 1005.0 0.0
12/07:30pm 32.5 28.8 2.5 15 15.5 W 11 15 6 8 1008.1 1004.5 0.0
12/07:00pm 33.9 28.4 0.5 12 16.9 W 19 28 10 15 1007.6 1004.0 0.0
12/06:30pm 34.8 28.1 1.2 12 17.3 W 26 39 14 21 1007.3 1003.8 0.0
12/06:00pm 35.8 29.4 0.8 11 18.0 W 24 37 13 20 1007.0 1003.4 0.0
12/05:30pm 36.6 29.5 1.4 11 18.3 W 28 41 15 22 1006.8 1003.2 0.0
12/05:03pm 36.8 29.7 1.5 11 18.4 WNW 28 54 15 29 1006.6 1003.0 0.0
12/05:00pm 37.1 31.0 3.0 12 18.3 WNW 24 41 13 22 1006.5 1002.9 0.0
12/04:33pm 37.3 30.3 1.9 11 18.7 WNW 28 48 15 26 1006.6 1003.0 0.0
12/04:30pm 37.6 31.0 2.1 11 18.8 WNW 26 46 14 25 1006.5 1002.9 0.0
12/04:24pm 37.1 29.9 3.0 12 18.3 WNW 30 46 16 25 1006.6 1003.0 0.0
12/04:22pm 37.0 29.8 2.9 12 18.2 WNW 30 46 16 25 1006.7 1003.1 0.0
12/04:09pm 37.4 30.0 2.0 11 18.7 WNW 30 44 16 24 1006.6 1003.0 0.0
12/04:00pm 37.8 31.5 3.5 12 18.6 W 26 41 14 22 1006.7 1003.1 0.0
12/03:37pm 37.7 31.0 3.4 12 18.5 WNW 28 56 15 30 1006.9 1003.3 0.0
12/03:30pm 37.4 31.6 4.4 13 18.1 WNW 24 46 13 25 1006.9 1003.3 0.0
12/03:00pm 36.9 31.8 6.0 15 17.4 WNW 22 35 12 19 1007.2 1003.7 0.0
12/02:30pm 36.6 31.7 6.7 16 16.9 WNW 22 35 12 19 1007.8 1004.2 0.0
12/02:00pm 37.2 32.0 7.2 16 17.2 W 24 39 13 21 1008.3 1004.7 0.0
12/01:30pm 36.8 32.1 7.8 17 16.7 WNW 22 37 12 20 1008.6 1005.0 0.0
12/01:16pm 36.9 31.1 7.8 17 16.8 WNW 28 46 15 25 1008.8 1005.2 0.0
12/01:00pm 35.7 31.0 9.3 20 15.5 WNW 24 37 13 20 1009.0 1005.5 0.0
12/12:30pm 34.9 30.6 10.7 23 14.4 WNW 24 41 13 22 1009.4 1005.9 0.0
12/12:00pm 34.6 30.2 11.7 25 13.9 WNW 26 46 14 25 1010.0 1006.4 0.0
12/11:58am 34.5 29.7 11.6 25 13.8 WNW 28 46 15 25 1009.9 1006.3 0.0
12/11:30am 33.8 30.4 10.4 24 13.8 WNW 19 32 10 17 1010.3 1006.7 0.0
12/11:00am 33.2 31.0 12.2 28 12.7 WNW 15 22 8 12 1010.7 1007.1 0.0
12/10:30am 31.9 30.7 14.1 34 11.0 NW 13 20 7 11 1011.1 1007.6 0.0
12/10:00am 30.8 30.2 15.6 39 9.6 NW 13 24 7 13 1011.6 1008.1 0.0
12/09:30am 30.2 30.1 16.9 44 8.5 WNW 13 20 7 11 1011.9 1008.3 0.0
12/09:00am 28.8 29.8 18.6 54 6.7 WNW 11 17 6 9 1012.3 1008.7 1.6
12/08:30am 27.7 28.7 19.5 61 5.4 WNW 13 20 7 11 1012.4 1008.8 1.6
12/08:00am 26.8 27.2 19.9 66 4.6 WNW 17 22 9 12 1012.5 1008.9 1.6
12/07:30am 25.7 26.3 20.3 72 3.6 NNW 17 24 9 13 1012.5 1008.9 1.4
12/07:00am 24.9 26.1 20.6 77 2.9 NNW 15 20 8 11 1012.3 1008.7 1.4
12/06:30am 23.8 24.3 21.1 85 1.8 N 20 26 11 14 1011.9 1008.3 1.4
12/06:00am 22.6 23.1 21.2 92 0.9 N 20 30 11 16 1011.2 1007.7 1.4
12/05:30am 22.7 22.7 20.2 86 1.6 N 20 30 11 16 1010.8 1007.3 1.4
12/05:00am 22.8 22.6 19.8 83 2.0 N 20 28 11 15 1010.5 1006.9 1.4
12/04:30am 23.0 22.3 19.6 81 2.2 N 22 30 12 16 1010.1 1006.5 1.4
12/04:00am 23.2 22.5 19.6 80 2.4 N 22 32 12 17 1010.0 1006.4 1.4
12/03:30am 23.7 22.2 19.4 77 2.8 N 26 37 14 20 1010.0 1006.4 1.4
12/03:00am 23.8 22.7 19.5 77 2.8 N 24 33 13 18 1009.9 1006.3 1.4
12/02:30am 23.4 23.5 20.0 81 2.2 N 19 28 10 15 1009.8 1006.2 1.4
12/02:00am 23.3 23.2 19.9 81 2.2 N 20 28 11 15 1010.1 1006.5 1.4
12/01:30am 22.8 22.8 19.8 83 2.0 N 19 26 10 14 1009.6 1006.1 1.4
12/01:00am 23.2 23.1 19.6 80 2.4 N 19 26 10 14 1010.0 1006.4 1.4
12/12:30am 23.3 23.0 19.5 79 2.5 N 20 26 11 14 1010.1 1006.5 1.4
12/12:00am 23.5 23.1 19.4 78 2.7 NNE 20 32 11 17 1010.2 1006.6 1.4
 
Date/Time
WST
Temp
°C
App
Temp
°C
Dew
Point
°C
Rel
Hum
%
Delta-T
°C
Wind Press
QNH
hPa
Press
MSL
hPa
Rain since
9am
mm
Dir  Spd
km/h
Gust
km/h
Spd
kts
Gust
kts
11/11:30pm 23.3 23.3 19.7 80 2.4 NE 19 28 10 15 1010.3 1006.7 1.4
11/11:00pm 23.2 22.6 19.8 81 2.2 NE 22 32 12 17 1010.4 1006.8 1.4
11/10:30pm 23.3 23.8 20.1 82 2.1 NE 17 22 9 12 1010.5 1006.9 1.4
11/10:00pm 23.2 24.5 20.9 87 1.5 NNE 15 20 8 11 1010.6 1007.0 1.4
11/09:30pm 23.6 24.4 20.7 84 1.9 NE 17 22 9 12 1010.2 1006.6 1.4
11/09:00pm 24.2 24.4 20.5 80 2.5 ENE 20 28 11 15 1009.9 1006.3 1.4
11/08:30pm 24.6 24.7 20.3 77 2.9 NE 20 33 11 18 1009.9 1006.3 1.4
11/08:00pm 25.7 24.6 18.6 65 4.6 ENE 22 30 12 16 1009.6 1006.1 1.4
11/07:30pm 26.1 27.9 19.5 67 4.3 ESE 9 11 5 6 1009.0 1005.5 1.4
11/07:00pm 26.7 28.4 19.3 64 4.9 SSE 9 13 5 7 1008.9 1005.4 1.4
11/06:30pm 27.4 27.9 18.4 58 5.9 NE 13 20 7 11 1008.9 1005.4 1.4
11/06:00pm 27.3 26.4 18.3 58 5.9 NNE 20 33 11 18 1008.9 1005.4 1.4
11/05:43pm 27.1 24.5 17.8 56 6.0 NNE 28 56 15 30 1009.2 1005.7 1.4
11/05:30pm 29.0 27.5 17.8 50 7.3 NNE 22 28 12 15 1008.9 1005.4 1.4
11/05:02pm 30.1 28.8 17.2 46 8.3 NE 20 48 11 26 1009.6 1006.1 1.4
11/05:00pm 31.1 30.7 18.1 46 8.5 NE 17 28 9 15 1009.2 1005.7 1.4
11/04:30pm 28.4 27.4 17.9 53 6.8 ENE 20 28 11 15 1008.9 1005.4 1.4
11/04:00pm 25.2 24.9 19.6 71 3.7 NE 20 30 11 16 1009.1 1005.6 1.4
11/03:45pm 25.0 22.8 18.7 68 4.1 NNE 28 39 15 21 1009.9 1006.3 1.4
11/03:37pm 24.0 23.3 19.5 76 2.9 NNE 22 39 12 21 1010.0 1006.4 1.4
11/03:30pm 23.2 22.5 20.3 84 1.9 NNW 24 46 13 25 1010.3 1006.7 1.4
11/03:23pm 24.1 18.0 19.4 75 3.1 NW 50 82 27 44 1011.5 1008.0 0.6
11/03:17pm 24.8 17.3 18.7 69 4.0 WNW 56 89 30 48 1010.7 1007.1 0.0
11/03:11pm 28.1 23.1 15.1 45 8.1 WNW 35 89 19 48 1010.0 1006.4 0.0
11/03:08pm 31.6 28.9 13.4 33 11.2 WNW 20 67 11 36 1009.9 1006.3 0.0
11/03:00pm 35.4 34.8 13.5 26 13.6 NNW 9 17 5 9 1008.9 1005.4 0.0
11/02:30pm 36.1 34.9 14.1 26 13.8 N 13 19 7 10 1009.3 1005.8 0.0
11/02:00pm 37.4 35.7 14.7 26 14.5 NNW 17 28 9 15 1009.9 1006.3 0.0
11/01:30pm 37.0 34.8 14.3 26 14.4 N 19 30 10 16 1010.3 1006.7 0.0
11/01:00pm 37.0 35.0 14.9 27 14.1 N 19 33 10 18 1010.8 1007.3 0.0
11/12:30pm 36.2 33.9 14.2 26 13.9 N 19 28 10 15 1011.4 1007.9 0.0
11/12:00pm 35.4 32.9 15.2 30 12.9 N 22 32 12 17 1011.9 1008.3 0.0
11/11:30am 33.8 30.9 16.2 35 11.3 NNW 26 37 14 20 1012.4 1008.8 0.0
11/11:00am 33.7 31.0 15.7 34 11.5 N 24 37 13 20 1012.9 1009.4 0.0
11/10:30am 33.6 30.7 16.0 34 11.3 N 26 37 14 20 1013.4 1009.9 0.0
11/10:00am 30.6 27.4 16.2 41 9.2 NNE 28 37 15 20 1013.8 1010.3 0.0
11/09:30am 30.8 27.1 16.0 40 9.4 N 30 43 16 23 1014.2 1010.6 0.0
11/09:00am 29.7 26.2 16.5 45 8.4 N 30 44 16 24 1014.5 1011.0 0.4
11/08:30am 27.4 24.0 16.7 52 6.8 NNE 30 41 16 22 1014.8 1011.3 0.4
11/08:00am 27.0 23.2 17.2 55 6.3 N 33 48 18 26 1015.0 1011.5 0.4
11/07:30am 26.0 23.2 17.4 59 5.5 N 28 46 15 25 1015.1 1011.6 0.4
11/07:00am 24.7 22.9 17.9 66 4.4 NNE 24 39 13 21 1015.3 1011.8 0.4
11/06:30am 23.3 22.3 18.0 72 3.4 NNE 20 28 11 15 1015.1 1011.6 0.4
11/06:00am 21.7 21.6 17.9 79 2.4 NNE 15 24 8 13 1015.2 1011.7 0.4
11/05:30am 21.7 20.8 17.7 78 2.5 NNE 19 28 10 15 1015.0 1011.5 0.4
11/05:00am 22.0 22.3 16.9 73 3.2 N 11 17 6 9 1015.2 1011.7 0.4
11/04:30am 22.0 20.4 16.5 71 3.4 NNE 20 28 11 15 1014.7 1011.2 0.4
11/04:00am 22.3 20.2 16.3 69 3.7 NE 22 35 12 19 1013.6 1010.1 0.4
11/03:30am 22.4 21.1 17.3 73 3.2 NE 20 32 11 17 1013.5 1010.0 0.4
11/03:00am 22.6 20.3 17.5 73 3.2 NE 26 39 14 21 1013.6 1010.1 0.4
11/02:30am 22.7 19.4 16.9 70 3.6 NE 30 46 16 25 1013.4 1009.9 0.4
11/02:00am 23.0 20.3 16.5 67 4.0 NE 26 41 14 22 1014.6 1011.1 0.4
11/01:30am 23.3 19.3 16.1 64 4.5 NE 32 44 17 24 1013.8 1010.3 0.4
11/01:00am 23.6 20.3 16.1 62 4.7 NE 28 44 15 24 1013.8 1010.3 0.4
11/12:30am 23.9 20.2 15.9 61 5.0 NE 30 48 16 26 1014.1 1010.5 0.4
11/12:00am 24.6 19.7 15.2 55 5.8 NE 35 56 19 30 1013.5 1010.0 0.4
 
Date/Time
WST
Temp
°C
App
Temp
°C
Dew
Point
°C
Rel
Hum
%
Delta-T
°C
Wind Press
QNH
hPa
Press
MSL
hPa
Rain since
9am
mm
Dir  Spd
km/h
Gust
km/h
Spd
kts
Gust
kts
10/11:30pm 25.6 20.5 14.7 51 6.7 NNE 35 56 19 30 1014.0 1010.4 0.4
10/11:20pm 25.9 22.1 14.7 50 6.9 NNE 28 46 15 25 1014.1 1010.5 0.4
10/11:00pm 25.6 22.2 14.7 51 6.7 NE 26 43 14 23 1014.1 1010.5 0.4
10/10:30pm 25.6 22.9 14.7 51 6.7 NE 22 33 12 18 1013.8 1010.3 0.4
10/10:00pm 25.3 23.6 14.7 51 6.5 ENE 17 24 9 13 1013.7 1010.2 0.4
10/09:30pm 25.1 22.1 14.9 53 6.2 E 24 41 13 22 1013.5 1010.0 0.4
10/09:00pm 25.7 22.5 14.2 49 7.0 E 24 37 13 20 1014.1 1010.5 0.4
10/08:30pm 25.8 22.5 14.0 48 7.1 E 24 41 13 22 1014.0 1010.4 0.4
10/08:00pm 26.7 23.3 13.8 45 7.8 E 24 35 13 19 1014.3 1010.7 0.4
10/07:30pm 27.8 24.8 12.6 39 9.1 ESE 20 37 11 20 1014.2 1010.6 0.4
10/07:00pm 28.1 24.9 12.0 36 9.5 SE 20 32 11 17 1013.6 1010.1 0.4
10/06:30pm 28.6 25.3 11.6 34 10.0 ESE 20 30 11 16 1013.4 1009.9 0.4
10/06:00pm 28.9 23.9 11.0 33 10.5 SE 28 37 15 20 1012.7 1009.2 0.4
10/05:30pm 29.3 23.5 10.9 32 10.7 SE 32 43 17 23 1012.1 1008.5 0.4
10/05:00pm 30.1 23.0 9.6 28 11.8 SSE 37 50 20 27 1012.0 1008.4 0.4
10/04:30pm 30.9 24.7 9.2 26 12.4 SE 32 50 17 27 1011.9 1008.3 0.4
10/04:17pm 29.5 23.7 11.5 33 10.6 SE 33 54 18 29 1010.7 1007.1 0.4
10/04:13pm 29.4 25.7 12.8 36 10.0 ESE 24 43 13 23 1011.2 1007.7 0.4
10/04:00pm 31.3 28.1 10.1 27 12.3 E 17 24 9 13 1013.3 1009.8 0.4
10/03:30pm 32.1 28.8 9.6 25 13.0 SE 17 26 9 14 1012.2 1008.6 0.4
10/03:00pm 32.1 29.2 9.6 25 13.0 NW 15 35 8 19 1012.8 1009.3 0.2
10/02:30pm 33.3 27.7 8.7 22 14.1 SW 28 52 15 28 1011.3 1007.8 0.0
10/02:28pm 34.4 27.0 4.0 15 16.3 SW 32 52 17 28 1011.0 1007.5 0.0
10/02:00pm 36.7 32.4 -1.3 9 19.0 WSW 11 28 6 15 1009.6 1006.1 0.0
10/01:30pm 38.3 34.4 1.3 10 19.4 NNE 11 22 6 12 1010.0 1006.4 0.0
10/01:00pm 37.1 32.5 1.8 11 18.6 E 15 32 8 17 1010.8 1007.3 0.0
10/12:30pm 38.0 33.3 1.1 10 19.3 ENE 15 28 8 15 1011.1 1007.6 0.0
10/12:00pm 37.2 31.5 -0.9 9 19.2 ESE 19 30 10 16 1011.5 1008.0 0.0
10/11:30am 37.2 31.3 -0.9 9 19.2 E 20 32 11 17 1012.2 1008.6 0.0
10/11:00am 36.7 29.6 -1.3 9 19.0 SE 26 39 14 21 1012.4 1008.8 0.0
10/10:30am 35.9 29.9 -1.9 9 18.6 ESE 20 30 11 16 1012.8 1009.3 0.0
10/10:00am 34.4 28.0 -1.6 10 17.7 SE 22 32 12 17 1013.1 1009.6 0.0
10/09:30am 33.9 27.4 0.5 12 16.9 SE 24 39 13 21 1013.2 1009.7 0.0
10/09:00am 31.7 25.7 1.0 14 15.4 ESE 22 32 12 17 1013.5 1010.0 0.6
10/08:30am 30.9 25.3 1.3 15 14.9 ESE 20 33 11 18 1013.7 1010.2 0.6
10/08:00am 29.6 24.0 3.6 19 13.5 ESE 22 32 12 17 1013.6 1010.1 0.6
10/07:30am 27.6 22.8 5.8 25 11.6 SE 20 28 11 15 1013.7 1010.2 0.6
10/07:00am 26.9 22.3 6.3 27 11.0 SE 20 26 11 14 1013.7 1010.2 0.6
10/06:30am 26.1 21.4 6.2 28 10.6 SE 20 28 11 15 1013.4 1009.9 0.6
10/06:00am 25.1 21.4 6.3 30 10.0 SSE 15 19 8 10 1013.6 1010.1 0.6
10/05:30am 24.4 20.3 6.2 31 9.6 SE 17 20 9 11 1013.0 1009.5 0.6
10/05:00am 23.5 20.3 6.7 34 8.9 SSE 13 17 7 9 1012.8 1009.3 0.6
10/04:30am 23.5 19.9 6.7 34 8.9 SE 15 19 8 10 1012.5 1008.9 0.6
10/04:00am 23.6 20.3 6.4 33 9.0 SSE 13 17 7 9 1012.4 1008.8 0.6
10/03:30am 24.0 20.7 6.3 32 9.3 SSE 13 17 7 9 1012.5 1008.9 0.6
10/03:00am 24.7 21.2 5.5 29 10.0 SE 13 17 7 9 1012.4 1008.8 0.6
10/02:30am 25.1 21.6 5.3 28 10.3 ESE 13 20 7 11 1012.1 1008.5 0.6
10/02:00am 25.2 22.2 5.9 29 10.2 ESE 11 17 6 9 1012.1 1008.5 0.6
10/01:30am 24.5 21.5 7.6 34 9.1 E 13 17 7 9 1012.1 1008.5 0.6
10/01:00am 24.0 21.5 9.6 40 8.0 E 13 20 7 11 1012.1 1008.5 0.6
10/12:30am 24.2 21.2 10.8 43 7.6 ESE 17 22 9 12 1012.4 1008.8 0.6
10/12:00am 24.5 20.8 11.5 44 7.5 SE 22 33 12 18 1012.9 1009.4 0.6
 
Date/Time
WST
Temp
°C
App
Temp
°C
Dew
Point
°C
Rel
Hum
%
Delta-T
°C
Wind Press
QNH
hPa
Press
MSL
hPa
Rain since
9am
mm
Dir  Spd
km/h
Gust
km/h
Spd
kts
Gust
kts
09/11:30pm 23.9 21.1 12.5 49 6.7 SE 19 24 10 13 1013.4 1009.9 0.6
09/11:00pm 23.8 20.8 12.4 48 6.7 SE 20 26 11 14 1013.7 1010.2 0.6
09/10:30pm 23.9 21.2 12.8 49 6.5 SE 19 28 10 15 1014.1 1010.5 0.6

Other Formats:

Comma delimited format used in spreadsheet applications
http://www.bom.gov.au/fwo/IDW60801/IDW60801.95448.axf

JavaScript Object Notation format (JSON) in row-major order
http://www.bom.gov.au/fwo/IDW60801/IDW60801.95448.json